Time;durP1;ratioP1;P1;durP2;ratioP2;P2;SDS_P1;SDS_P2;PMS_P1;PMS_P2;Temp;Humidity;BMP_temperature;BMP_pressure;BME280_temperature;BME280_humidity;BME280_pressure;Samples;Min_cycle;Max_cycle;Signal;HPM_P1;HPM_P2
2022/11/12 00:01:08;;;;;;;30.13;15.73;;;8.00;99.90;;;5.81;100.00;101629.53;10490360;28;20420;-85
2022/11/12 00:06:11;;;;;;;25.17;13.13;;;8.00;99.90;;;5.80;100.00;101633.13;10507756;28;20060;-84
2022/11/12 00:11:15;;;;;;;17.30;9.77;;;8.00;99.90;;;5.78;100.00;101613.94;10489778;28;20084;-84
2022/11/12 00:16:18;;;;;;;27.10;14.40;;;8.00;99.90;;;5.81;100.00;101618.97;10498243;28;20085;-84
2022/11/12 00:21:21;;;;;;;24.67;13.40;;;8.00;99.90;;;5.81;100.00;101621.63;10477660;28;20107;-85
2022/11/12 00:26:24;;;;;;;21.23;11.47;;;8.00;99.90;;;5.83;100.00;101614.47;10470963;28;20057;-84
2022/11/12 00:31:27;;;;;;;21.90;12.63;;;8.00;99.90;;;5.85;100.00;101598.53;10437796;28;20567;-85
2022/11/12 00:36:30;;;;;;;27.37;15.20;;;8.00;99.90;;;5.87;100.00;101601.91;10465231;28;20063;-84
2022/11/12 00:41:33;;;;;;;23.17;11.90;;;8.10;99.90;;;5.87;100.00;101596.63;10476424;28;20064;-85
2022/11/12 00:46:36;;;;;;;19.63;10.87;;;8.10;99.90;;;5.92;100.00;101599.00;10489840;28;20057;-85
2022/11/12 00:51:39;;;;;;;18.17;10.03;;;8.10;99.90;;;5.95;100.00;101591.72;10530686;28;20060;-86
2022/11/12 00:56:46;;;;;;;22.87;13.33;;;8.10;99.90;;;5.95;100.00;101594.38;10466165;28;20060;-85
2022/11/12 01:01:50;;;;;;;18.03;10.17;;;8.20;99.90;;;5.98;100.00;101590.66;10459930;28;20064;-85
2022/11/12 01:06:53;;;;;;;36.63;17.90;;;8.20;99.90;;;5.95;100.00;101596.16;10481976;28;20068;-85
2022/11/12 01:11:56;;;;;;;20.77;11.53;;;8.20;99.90;;;5.92;100.00;101584.00;10491192;28;20152;-85
2022/11/12 01:16:59;;;;;;;24.33;13.00;;;8.10;99.90;;;5.84;100.00;101581.03;10531830;28;20084;-85
2022/11/12 01:22:02;;;;;;;26.80;13.73;;;8.10;99.90;;;5.80;100.00;101571.59;10488926;28;20060;-85
2022/11/12 01:27:04;;;;;;;19.90;10.03;;;8.00;99.90;;;5.78;100.00;101576.16;10482837;28;20064;-86
2022/11/12 01:32:07;;;;;;;18.93;10.80;;;8.00;99.90;;;5.78;100.00;101571.72;10489579;28;20061;-85
2022/11/12 01:37:10;;;;;;;20.47;11.07;;;8.00;99.90;;;5.80;100.00;101574.25;10507974;28;20099;-85
2022/11/12 01:42:13;;;;;;;24.37;12.37;;;8.00;99.90;;;5.82;100.00;101572.38;10475008;28;20057;-86
2022/11/12 01:47:28;;;;;;;13.23;7.57;;;8.10;99.90;;;5.83;100.00;101569.63;10482770;28;20060;-86
2022/11/12 01:52:42;;;;;;;22.77;12.23;;;8.00;99.90;;;5.83;100.00;101564.34;10473890;28;20089;-85
2022/11/12 01:58:04;;;;;;;19.33;11.13;;;8.00;99.90;;;5.83;100.00;101564.34;10472754;28;20131;-86
2022/11/12 02:03:14;;;;;;;23.77;11.75;;;8.10;99.90;;;5.82;100.00;101569.72;10488482;28;20582;-86
2022/11/12 02:08:18;;;;;;;20.77;11.00;;;8.10;99.90;;;5.80;100.00;101555.78;10499369;28;20079;-85
2022/11/12 02:18:42;;;;;;;26.48;12.23;;;8.00;99.90;;;5.78;100.00;101549.78;10474891;28;20061;-85
2022/11/12 02:23:45;;;;;;;25.40;11.63;;;8.00;99.90;;;5.72;100.00;101551.03;10477075;28;20060;-84
2022/11/12 02:28:48;;;;;;;25.47;13.73;;;8.00;99.90;;;5.67;100.00;101557.56;10514035;28;20461;-84
2022/11/12 02:33:51;;;;;;;23.07;12.97;;;7.90;99.90;;;5.55;100.00;101569.78;10490269;28;20421;-85
2022/11/12 02:38:54;;;;;;;28.67;13.73;;;7.80;99.90;;;5.41;100.00;101562.78;10483409;28;20068;-84
2022/11/12 02:43:57;;;;;;;18.33;10.83;;;7.70;99.90;;;5.31;100.00;101566.97;10469403;28;20166;-85
2022/11/12 02:49:00;;;;;;;24.53;12.17;;;7.50;99.90;;;5.24;100.00;101576.22;10501082;28;20064;-85
2022/11/12 02:54:03;;;;;;;27.60;13.13;;;7.50;99.90;;;5.20;100.00;101569.44;10501701;28;20053;-84
2022/11/12 02:59:06;;;;;;;25.50;13.30;;;7.40;99.90;;;5.14;100.00;101568.06;10519859;28;20084;-85
2022/11/12 03:04:08;;;;;;;15.87;9.30;;;7.40;99.90;;;5.14;100.00;101564.59;10484037;28;20483;-85
2022/11/12 03:09:12;;;;;;;32.00;15.07;;;7.30;99.90;;;5.11;100.00;101563.00;10486130;28;20065;-85
2022/11/12 03:14:15;;;;;;;28.63;12.60;;;7.30;99.90;;;5.12;100.00;101566.47;10490500;28;20060;-85
2022/11/12 03:19:18;;;;;;;18.20;9.23;;;7.30;99.90;;;5.11;100.00;101568.28;10484499;28;20144;-84
2022/11/12 03:24:21;;;;;;;30.23;14.77;;;7.30;99.90;;;5.09;100.00;101567.50;10484380;28;20069;-84
2022/11/12 03:29:25;;;;;;;21.60;9.70;;;7.30;99.90;;;5.09;100.00;101578.03;10488185;28;20053;-85
2022/11/12 03:34:28;;;;;;;24.60;12.80;;;7.30;99.90;;;5.05;100.00;101580.06;10456269;28;20406;-85
2022/11/12 03:39:30;;;;;;;27.17;13.93;;;7.30;99.90;;;4.99;100.00;101583.09;10517565;28;20134;-85
2022/11/12 03:44:33;;;;;;;24.17;12.00;;;7.30;99.90;;;4.91;100.00;101589.75;10496620;28;20061;-85
2022/11/12 03:49:39;;;;;;;25.67;12.30;;;7.20;99.90;;;4.74;100.00;101594.34;10484303;28;20071;-84
2022/11/12 03:54:42;;;;;;;21.77;11.70;;;7.00;99.90;;;4.62;100.00;101594.22;10498887;28;20063;-85
2022/11/12 03:59:45;;;;;;;20.60;10.10;;;6.90;99.90;;;4.45;100.00;101577.72;10468481;28;20065;-84
2022/11/12 04:10:10;;;;;;;19.02;9.48;;;6.70;99.90;;;4.29;100.00;101603.25;10486867;28;20057;-84
2022/11/12 04:15:13;;;;;;;20.47;10.13;;;6.50;99.90;;;4.15;100.00;101590.09;10492389;28;20096;-84
2022/11/12 04:31:01;;;;;;;22.20;11.03;;;6.20;99.90;;;3.87;100.00;101580.38;10459194;28;20083;-85
2022/11/12 04:36:04;;;;;;;23.27;10.67;;;6.20;99.90;;;3.80;100.00;101573.81;10503239;28;20068;-85
2022/11/12 04:46:29;;;;;;;26.85;11.70;;;6.10;99.90;;;3.72;100.00;101576.88;10513638;28;20053;-85
2022/11/12 04:56:53;;;;;;;22.77;10.40;;;5.90;99.90;;;3.63;100.00;101586.16;10499675;28;20110;-86
2022/11/12 05:01:56;;;;;;;23.47;11.27;;;5.90;99.90;;;3.62;100.00;101591.50;10469765;28;20058;-85
2022/11/12 05:07:00;;;;;;;27.30;10.50;;;5.90;99.90;;;3.58;100.00;101595.22;10493051;28;20069;-86
2022/11/12 05:12:03;;;;;;;21.07;11.03;;;5.90;99.90;;;3.51;100.00;101604.41;10460873;28;20060;-85
2022/11/12 05:17:06;;;;;;;23.77;11.33;;;5.80;99.90;;;3.43;100.00;101613.59;10470191;28;20065;-84
2022/11/12 05:22:10;;;;;;;21.33;8.70;;;5.70;99.90;;;3.33;100.00;101599.25;10479064;28;20155;-84
2022/11/12 05:27:34;;;;;;;21.17;9.80;;;5.60;99.90;;;3.30;100.00;101595.94;10505754;28;20504;-84
2022/11/12 05:32:37;;;;;;;28.17;11.30;;;5.60;99.90;;;3.30;100.00;101601.22;10463515;28;20085;-84
2022/11/12 05:37:40;;;;;;;20.63;9.20;;;5.60;99.90;;;3.29;100.00;101587.22;10484830;28;20065;-85
2022/11/12 05:42:44;;;;;;;31.83;13.10;;;5.60;99.90;;;3.35;100.00;101589.50;10501437;28;20069;-85
2022/11/12 05:47:47;;;;;;;73.73;34.00;;;5.60;99.90;;;3.46;100.00;101604.66;10463926;28;20087;-85
2022/11/12 05:52:50;;;;;;;51.33;23.50;;;5.70;99.90;;;3.51;100.00;101617.56;10501460;28;20508;-84
2022/11/12 05:57:53;;;;;;;61.90;26.43;;;5.80;99.90;;;3.57;100.00;101622.47;10499236;28;20107;-85
2022/11/12 06:02:57;;;;;;;58.63;25.53;;;5.90;99.90;;;3.60;100.00;101625.78;10485898;28;20062;-85
2022/11/12 06:08:01;;;;;;;31.93;15.13;;;5.90;99.90;;;3.66;100.00;101627.19;10478482;28;20175;-84
2022/11/12 06:13:04;;;;;;;43.27;20.43;;;5.90;99.90;;;3.70;100.00;101631.31;10468200;28;20505;-84
2022/11/12 06:18:08;;;;;;;42.17;18.63;;;6.00;99.90;;;3.72;100.00;101647.88;10479948;28;20090;-84
2022/11/12 06:23:11;;;;;;;37.70;12.67;;;6.00;99.90;;;3.70;100.00;101652.34;10480428;28;20433;-84
2022/11/12 06:28:14;;;;;;;36.10;17.77;;;6.00;99.90;;;3.75;100.00;101661.66;10485909;28;20424;-84
2022/11/12 06:33:17;;;;;;;31.93;15.13;;;6.00;99.90;;;3.76;100.00;101667.78;10476144;28;20068;-84
2022/11/12 06:38:20;;;;;;;24.30;11.27;;;6.00;99.90;;;3.77;100.00;101682.63;10495981;28;20064;-84
2022/11/12 06:43:25;;;;;;;26.40;11.97;;;6.00;99.90;;;3.80;100.00;101678.97;10478678;28;20514;-84
2022/11/12 06:48:29;;;;;;;32.80;13.83;;;6.10;99.90;;;3.89;100.00;101674.03;10502169;28;20500;-82
2022/11/12 06:53:32;;;;;;;21.20;8.83;;;6.10;99.90;;;4.01;100.00;101681.19;10481069;28;20057;-82
2022/11/12 06:58:35;;;;;;;19.97;10.70;;;6.20;99.90;;;4.16;100.00;101673.34;10518606;28;20064;-83
2022/11/12 07:03:40;;;;;;;22.63;9.77;;;6.30;99.90;;;4.36;100.00;101688.78;10480340;28;20093;-83
2022/11/12 07:08:48;;;;;;;23.53;11.20;;;6.50;99.90;;;4.49;100.00;101707.34;10497248;28;20061;-83
2022/11/12 07:13:51;;;;;;;20.83;9.07;;;6.60;99.90;;;4.60;100.00;101704.06;10467465;28;20064;-83
2022/11/12 07:18:54;;;;;;;26.13;12.17;;;6.70;99.90;;;4.74;100.00;101698.81;10487606;28;20064;-83
2022/11/12 07:23:57;;;;;;;25.93;12.03;;;6.90;99.90;;;4.97;100.00;101700.88;10478368;28;20068;-82
2022/11/12 07:29:00;;;;;;;23.17;11.73;;;7.10;99.90;;;5.26;100.00;101706.09;10485729;28;20147;-82
2022/11/12 07:34:03;;;;;;;34.70;17.37;;;7.30;99.90;;;5.56;100.00;101688.31;10482536;28;20053;-83
2022/11/12 07:39:06;;;;;;;42.83;21.40;;;7.60;99.90;;;5.93;100.00;101682.47;10500196;28;20083;-83
2022/11/12 07:44:09;;;;;;;37.97;20.97;;;8.00;99.90;;;6.34;100.00;101682.34;10455779;28;20131;-82
2022/11/12 07:49:12;;;;;;;34.70;20.37;;;8.30;99.90;;;6.76;100.00;101685.63;10465373;28;20080;-83
2022/11/12 07:54:15;;;;;;;29.23;18.27;;;8.70;99.90;;;7.14;100.00;101690.88;10481034;28;20087;-82
2022/11/12 07:59:18;;;;;;;25.97;16.93;;;9.10;99.90;;;7.50;100.00;101692.66;10487210;28;20529;-83
2022/11/12 08:04:21;;;;;;;24.67;13.47;;;9.50;99.90;;;7.93;100.00;101694.78;10517297;28;20095;-83
2022/11/12 08:09:24;;;;;;;21.17;12.73;;;9.90;99.90;;;8.31;100.00;101695.38;10499072;28;20048;-82
2022/11/12 08:14:28;;;;;;;24.77;14.03;;;10.30;99.90;;;8.63;100.00;101705.34;10469871;28;20064;-82
2022/11/12 08:19:31;;;;;;;26.13;14.80;;;10.60;99.90;;;8.95;100.00;101699.34;10491385;28;20079;-83
2022/11/12 08:24:33;;;;;;;16.70;10.53;;;10.90;99.90;;;9.27;100.00;101699.44;10472660;28;20180;-83
2022/11/12 08:29:36;;;;;;;18.80;11.10;;;11.20;99.90;;;9.44;100.00;101701.59;10473244;28;20049;-83
2022/11/12 08:34:40;;;;;;;17.17;11.10;;;11.50;99.90;;;9.69;100.00;101705.75;10487981;28;20064;-83
2022/11/12 08:39:43;;;;;;;16.13;9.40;;;11.70;99.90;;;10.22;100.00;101707.59;10467223;28;20056;-82
2022/11/12 08:44:46;;;;;;;13.73;9.07;;;12.10;99.90;;;10.63;100.00;101706.78;10501278;28;20057;-82
2022/11/12 08:49:49;;;;;;;15.70;9.93;;;12.50;99.90;;;11.17;100.00;101708.28;10520821;28;20067;-83
2022/11/12 08:54:52;;;;;;;16.52;9.48;;;13.00;99.90;;;11.70;100.00;101690.19;10469357;28;20057;-80
2022/11/12 08:59:55;;;;;;;12.95;8.73;;;13.60;99.90;;;12.38;98.24;101700.84;10509632;28;20065;-82
2022/11/12 09:04:57;;;;;;;11.70;7.55;;;14.40;99.90;;;12.92;95.42;101709.94;10475466;28;20464;-80
2022/11/12 09:10:01;;;;;;;13.63;9.23;;;15.00;99.90;;;12.95;88.80;101712.31;10469595;28;20652;-80
2022/11/12 09:15:05;;;;;;;13.65;8.77;;;15.30;99.90;;;13.08;88.27;101718.19;10490934;28;20054;-81
2022/11/12 09:20:30;;;;;;;12.80;8.98;;;15.40;99.90;;;13.22;86.07;101724.03;10504717;28;20485;-82
2022/11/12 09:25:34;;;;;;;19.92;12.20;;;15.50;99.90;;;13.34;84.48;101721.03;10475154;28;20140;-82
2022/11/12 09:30:42;;;;;;;14.63;8.75;;;15.60;99.90;;;13.33;82.58;101721.19;10473785;28;20057;-82
2022/11/12 09:35:46;;;;;;;14.25;9.35;;;15.70;99.90;;;13.09;80.35;101735.03;10479226;28;20061;-82
2022/11/12 09:40:58;;;;;;;11.93;8.43;;;15.50;99.90;;;12.77;80.38;101732.72;10444474;28;20111;-82
2022/11/12 09:46:13;;;;;;;15.70;9.48;;;15.10;99.90;;;12.47;80.62;101731.94;10526404;28;20061;-82
2022/11/12 09:51:45;;;;;;;16.07;8.80;;;14.80;99.90;;;12.17;81.16;101732.13;10486510;28;20149;-82
2022/11/12 09:56:49;;;;;;;13.83;8.37;;;14.40;99.90;;;11.93;81.83;101737.88;10505893;28;20053;-81
2022/11/12 10:02:04;;;;;;;18.00;9.97;;;14.20;99.90;;;11.76;82.77;101745.56;10481514;28;20061;-82
2022/11/12 10:07:42;;;;;;;17.67;10.47;;;14.00;99.90;;;11.75;83.54;101745.66;10473798;28;20069;-80
2022/11/12 10:13:16;;;;;;;15.60;9.20;;;13.90;99.90;;;11.84;83.89;101744.88;10457228;28;20112;-82
2022/11/12 10:18:34;;;;;;;15.43;9.50;;;14.00;99.90;;;11.91;83.36;101739.84;10476342;28;20067;-82
2022/11/12 10:23:53;;;;;;;12.70;8.40;;;14.10;99.90;;;11.96;83.02;101732.28;10510680;28;20064;-81
2022/11/12 10:29:18;;;;;;;15.60;9.40;;;14.20;99.90;;;11.96;82.23;101732.28;10520391;28;20088;-82
2022/11/12 10:34:23;;;;;;;15.30;9.30;;;14.20;99.90;;;11.99;82.33;101735.47;10479946;28;20068;-82
2022/11/12 10:39:43;;;;;;;15.17;8.47;;;14.30;99.90;;;12.18;82.39;101725.84;10504742;28;20069;-82
2022/11/12 10:44:47;;;;;;;13.98;8.93;;;14.50;99.90;;;12.58;82.38;101720.28;10488770;28;20682;-82
2022/11/12 10:50:15;;;;;;;13.70;9.13;;;14.80;99.90;;;12.79;81.09;101717.44;10515129;28;20057;-82
2022/11/12 10:55:55;;;;;;;13.13;8.48;;;15.10;99.90;;;12.88;79.56;101726.38;10467184;28;20056;-82
2022/11/12 11:01:15;;;;;;;14.45;9.07;;;15.10;99.90;;;12.83;79.60;101722.34;10483348;28;20084;-82
2022/11/12 11:06:25;;;;;;;13.97;9.07;;;15.00;99.90;;;12.76;79.29;101712.38;10482788;28;20148;-82
2022/11/12 11:11:30;;;;;;;11.77;7.43;;;15.00;99.90;;;12.71;79.47;101709.31;10496406;28;20476;-82
2022/11/12 11:16:51;;;;;;;14.80;9.43;;;14.90;99.90;;;12.72;79.83;101711.00;10486495;28;20501;-80
2022/11/12 11:22:13;;;;;;;15.18;8.63;;;14.90;99.90;;;12.64;79.21;101711.72;10492855;28;20082;-82
2022/11/12 11:27:41;;;;;;;15.97;9.80;;;14.80;99.90;;;12.62;78.93;101710.19;10510332;28;20055;-82
2022/11/12 11:32:52;;;;;;;14.82;9.00;;;14.80;99.90;;;12.73;79.21;101705.53;10474800;28;20561;-82
2022/11/12 11:38:34;;;;;;;16.73;9.40;;;14.90;99.90;;;12.82;78.83;101701.13;10488354;28;21809;-82
2022/11/12 11:44:08;;;;;;;15.30;8.27;;;14.90;99.90;;;12.93;78.59;101702.78;10497690;28;20532;-82
2022/11/12 11:49:43;;;;;;;12.18;8.20;;;15.00;99.90;;;12.95;78.35;101688.28;10493307;28;21069;-82
2022/11/12 11:55:11;;;;;;;13.32;7.95;;;15.00;99.90;;;12.97;77.92;101678.34;10513459;28;21919;-82
2022/11/12 12:00:21;;;;;;;13.63;8.57;;;15.00;99.90;;;13.04;77.97;101674.06;10477213;28;20057;-81
2022/11/12 12:05:32;;;;;;;;;;;15.10;99.90;;;13.10;77.14;101673.47;10505722;28;20501;-81
2022/11/12 12:10:59;;;;;;;15.50;7.95;;;15.10;99.90;;;13.04;76.90;101668.75;10483893;28;19929;-81
2022/11/12 12:16:37;;;;;;;15.27;8.85;;;15.10;99.90;;;12.99;76.76;101668.34;10463737;28;20060;-81
2022/11/12 12:21:45;;;;;;;13.63;9.30;;;15.10;99.90;;;12.97;76.45;101664.16;10491184;28;20107;-81
2022/11/12 12:27:03;;;;;;;14.00;8.55;;;15.20;99.90;;;13.02;76.76;101648.53;10496263;28;20064;-81
2022/11/12 12:32:27;;;;;;;14.55;9.10;;;15.20;99.90;;;13.00;76.97;101643.34;10502592;28;20068;-81
2022/11/12 12:37:41;;;;;;;14.35;10.13;;;15.10;99.90;;;13.04;77.26;101642.06;10510172;28;20134;-81
2022/11/12 12:42:59;;;;;;;13.40;8.60;;;15.10;99.90;;;13.17;77.88;101640.84;10468295;28;20053;-81
2022/11/12 12:48:10;;;;;;;12.90;8.50;;;15.20;99.90;;;13.22;76.83;101643.97;10469296;28;20707;-81
2022/11/12 12:53:21;;;;;;;16.70;9.15;;;15.30;99.90;;;13.15;76.75;101642.84;10468245;28;20061;-81
2022/11/12 12:58:46;;;;;;;17.85;10.32;;;15.30;99.90;;;13.02;76.56;101644.03;10468063;28;20127;-81
2022/11/12 13:03:51;;;;;;;13.40;8.50;;;15.10;99.90;;;12.95;76.90;101639.44;10480350;28;20068;-81
2022/11/12 13:09:24;;;;;;;15.67;8.87;;;15.00;99.90;;;12.91;77.77;101641.56;10481285;28;20103;-81
2022/11/12 13:15:18;;;;;;;12.00;7.70;;;15.00;99.90;;;12.92;78.38;101637.91;10500142;28;20167;-81
2022/11/12 13:20:33;;;;;;;15.03;9.50;;;15.00;99.90;;;12.93;78.44;101639.59;10476354;28;20068;-81
2022/11/12 13:25:37;;;;;;;12.90;8.27;;;15.00;99.90;;;12.98;78.86;101631.97;10486146;28;20073;-81
2022/11/12 13:30:40;;;;;;;19.23;10.57;;;15.00;99.90;;;13.01;78.37;101628.16;10495812;28;20062;-82
2022/11/12 13:35:43;;;;;;;18.83;11.38;;;15.10;99.90;;;12.95;78.08;101626.09;10479959;28;20077;-81
2022/11/12 13:41:09;;;;;;;16.23;10.50;;;15.00;99.90;;;12.92;78.33;101637.91;10506198;28;20092;-81
2022/11/12 13:46:38;;;;;;;15.63;9.25;;;15.00;99.90;;;12.90;78.35;101629.22;10481269;28;20444;-81
2022/11/12 13:51:52;;;;;;;15.57;9.50;;;15.00;99.90;;;12.90;78.75;101631.88;10500037;28;20496;-80
2022/11/12 13:56:55;;;;;;;15.33;8.90;;;15.00;99.90;;;12.90;79.14;101629.22;10494626;28;20053;-81
2022/11/12 14:02:13;;;;;;;17.90;9.97;;;15.00;99.90;;;12.89;79.47;101630.19;10484979;28;20061;-81
2022/11/12 14:07:26;;;;;;;16.58;10.20;;;15.00;99.90;;;12.87;80.27;101629.50;10482708;28;20984;-81
2022/11/12 14:12:52;;;;;;;17.60;9.77;;;15.00;99.90;;;12.84;80.49;101630.66;10503242;28;20057;-82
2022/11/12 14:18:11;;;;;;;18.03;9.67;;;15.00;99.90;;;12.76;80.27;101627.03;10489746;28;20064;-80
2022/11/12 14:23:18;;;;;;;20.83;11.27;;;14.90;99.90;;;12.65;80.58;101633.38;10482708;28;20057;-82
2022/11/12 14:28:31;;;;;;;17.10;9.53;;;14.80;99.90;;;12.54;80.91;101633.59;10511592;28;20053;-82
2022/11/12 14:33:34;;;;;;;23.77;11.33;;;14.70;99.90;;;12.46;81.83;101623.63;10474866;28;20413;-81
2022/11/12 14:38:47;;;;;;;14.67;8.00;;;14.60;99.90;;;12.37;81.95;101632.50;10476354;28;20731;-82
2022/11/12 14:43:54;;;;;;;18.13;9.83;;;14.50;99.90;;;12.27;82.79;101629.84;10479550;28;20115;-81
2022/11/12 14:49:46;;;;;;;18.17;9.60;;;14.40;99.90;;;12.19;83.58;101628.91;10491328;28;20063;-82
2022/11/12 14:54:59;;;;;;;23.80;11.77;;;14.40;99.90;;;12.08;83.71;101629.91;10496329;27;20065;-81
2022/11/12 15:00:43;;;;;;;30.60;13.67;;;14.30;99.90;;;11.93;84.30;101634.81;10486573;28;20513;-81
2022/11/12 15:06:02;;;;;;;29.00;12.10;;;14.10;99.90;;;11.83;84.87;101635.81;10487131;28;20060;-81
2022/11/12 15:11:34;;;;;;;30.73;14.13;;;14.00;99.90;;;11.71;85.44;101635.09;10471327;28;20065;-82
2022/11/12 15:16:42;;;;;;;31.48;14.55;;;13.90;99.90;;;11.61;86.03;101634.25;10490474;28;20143;-81
2022/11/12 15:22:01;;;;;;;38.50;16.23;;;13.80;99.90;;;11.50;86.30;101630.72;10499943;28;20131;-81
2022/11/12 15:27:34;;;;;;;43.80;17.87;;;13.70;99.90;;;11.39;87.00;101640.66;10501117;28;20084;-81
2022/11/12 15:32:37;;;;;;;64.50;21.33;;;13.60;99.90;;;11.21;87.20;101645.81;10485830;28;20393;-82
2022/11/12 15:37:42;;;;;;;44.90;19.53;;;13.40;99.90;;;10.98;87.61;101648.72;10522904;28;20061;-82
2022/11/12 15:42:46;;;;;;;33.13;17.40;;;13.20;99.90;;;10.76;88.18;101653.38;10475296;28;21252;-83
2022/11/12 15:47:49;;;;;;;54.67;21.83;;;12.90;99.90;;;10.59;88.99;101655.66;10489183;28;20064;-83
2022/11/12 15:52:53;;;;;;;40.80;19.73;;;12.70;99.90;;;10.44;89.66;101660.50;10475205;28;20096;-81
2022/11/12 15:57:57;;;;;;;44.17;22.03;;;12.60;99.90;;;10.31;90.29;101667.81;10483872;28;20092;-82
2022/11/12 16:03:19;;;;;;;37.00;18.67;;;12.40;99.90;;;10.23;90.83;101670.28;10492054;28;20539;-81
2022/11/12 16:08:22;;;;;;;38.70;17.90;;;12.40;99.90;;;10.17;91.42;101668.13;10483520;28;20066;-82
2022/11/12 16:13:34;;;;;;;46.60;19.77;;;12.30;99.90;;;10.09;91.80;101671.44;10475744;28;20091;-80
2022/11/12 16:18:37;;;;;;;42.53;17.90;;;12.20;99.90;;;10.04;92.26;101670.13;10487503;28;20115;-81
2022/11/12 16:23:40;;;;;;;47.47;23.07;;;12.20;99.90;;;10.00;92.68;101671.34;10466739;28;20056;-82
2022/11/12 16:28:43;;;;;;;45.90;22.67;;;12.10;99.90;;;9.92;93.04;101669.34;10472248;28;20052;-82
2022/11/12 16:33:47;;;;;;;40.73;20.00;;;12.10;99.90;;;9.86;93.37;101669.84;10472566;28;20516;-82
2022/11/12 16:38:50;;;;;;;63.87;24.80;;;12.00;99.90;;;9.76;93.53;101672.41;10463292;28;20424;-79
2022/11/12 16:43:53;;;;;;;53.40;24.10;;;11.90;99.90;;;9.65;93.84;101678.63;10496387;28;20061;-82
2022/11/12 16:48:56;;;;;;;37.70;19.10;;;11.80;99.90;;;9.57;94.43;101677.53;10489779;28;20061;-83
2022/11/12 16:53:59;;;;;;;36.80;20.10;;;11.70;99.90;;;9.49;94.59;101672.03;10474645;28;20520;-82
2022/11/12 16:59:03;;;;;;;29.63;18.00;;;11.60;99.90;;;9.37;94.56;101679.19;10468445;28;20064;-82
2022/11/12 17:04:06;;;;;;;28.60;16.33;;;11.50;99.90;;;9.22;94.81;101670.63;10525494;28;20060;-82
2022/11/12 17:09:11;;;;;;;48.53;21.97;;;11.40;99.90;;;9.03;95.04;101673.91;10468772;28;20424;-82
2022/11/12 17:14:15;;;;;;;44.87;23.03;;;11.20;99.90;;;8.87;95.34;101670.78;10465960;28;20057;-82
2022/11/12 17:19:18;;;;;;;49.20;25.57;;;11.00;99.90;;;8.65;95.75;101676.09;10493644;28;20107;-82
2022/11/12 17:24:21;;;;;;;65.53;32.37;;;10.80;99.90;;;8.46;95.94;101679.31;10490951;28;20150;-82
2022/11/12 17:29:24;;;;;;;68.53;32.50;;;10.60;99.90;;;8.28;96.23;101681.53;10474352;28;20053;-81
2022/11/12 17:34:26;;;;;;;104.50;43.40;;;10.40;99.90;;;8.13;96.75;101669.44;10478215;28;20060;-82
2022/11/12 17:39:29;;;;;;;119.60;51.43;;;10.30;99.90;;;7.98;96.89;101674.13;10508141;28;20065;-82
2022/11/12 17:44:32;;;;;;;109.23;48.27;;;10.10;99.90;;;7.86;97.45;101683.81;10479910;28;20056;-81
2022/11/12 17:49:35;;;;;;;56.43;28.07;;;10.00;99.90;;;7.77;97.88;101689.78;10499848;28;20065;-81
2022/11/12 17:54:39;;;;;;;45.87;24.67;;;9.90;99.90;;;7.66;98.35;101673.84;10504505;28;20111;-82
2022/11/12 17:59:42;;;;;;;61.37;23.20;;;9.80;99.90;;;7.59;98.74;101680.53;10524227;28;20162;-82
2022/11/12 18:04:45;;;;;;;41.67;21.70;;;9.70;99.90;;;7.51;99.10;101676.66;10536227;28;20084;-81
2022/11/12 18:09:48;;;;;;;39.20;21.23;;;9.70;99.90;;;7.38;99.19;101689.09;10499755;28;20061;-82
2022/11/12 18:14:52;;;;;;;52.07;23.83;;;9.60;99.90;;;7.28;99.59;101681.94;10482561;28;20115;-82
2022/11/12 18:19:55;;;;;;;44.17;23.70;;;9.40;99.90;;;7.19;100.00;101686.91;10522485;28;20057;-82
2022/11/12 18:25:00;;;;;;;41.40;20.03;;;9.40;99.90;;;7.12;100.00;101693.59;10487738;28;20064;-82
2022/11/12 18:30:04;;;;;;;42.37;20.73;;;9.30;99.90;;;7.06;100.00;101686.09;10504364;28;20060;-82
2022/11/12 18:35:07;;;;;;;42.77;22.17;;;9.20;99.90;;;7.02;100.00;101692.56;10488528;28;20472;-82
2022/11/12 18:40:10;;;;;;;34.93;16.97;;;9.20;99.90;;;6.97;100.00;101699.97;10479572;28;20525;-82
2022/11/12 18:45:13;;;;;;;32.00;17.90;;;9.10;99.90;;;6.94;100.00;101705.47;10487532;28;20485;-82
2022/11/12 18:50:16;;;;;;;35.17;19.13;;;9.10;99.90;;;6.89;100.00;101712.88;10486396;28;20452;-82
2022/11/12 18:55:19;;;;;;;45.77;20.57;;;9.10;99.90;;;6.85;100.00;101703.47;10524876;28;20132;-82
2022/11/12 19:00:22;;;;;;;42.13;18.97;;;9.00;99.90;;;6.79;100.00;101717.13;10536908;28;20064;-82
2022/11/12 19:05:25;;;;;;;40.20;19.57;;;8.90;99.90;;;6.75;100.00;101705.91;10486570;28;20524;-82
2022/11/12 19:10:28;;;;;;;31.27;18.50;;;8.90;99.90;;;6.73;100.00;101712.25;10517643;28;20057;-82
2022/11/12 19:15:33;;;;;;;36.57;20.30;;;8.90;99.90;;;6.74;100.00;101717.44;10518963;28;20485;-81
2022/11/12 19:20:35;;;;;;;40.57;20.73;;;8.90;99.90;;;6.77;100.00;101708.44;10487272;28;20103;-81
2022/11/12 19:25:38;;;;;;;42.37;22.80;;;8.90;99.90;;;6.85;100.00;101714.06;10485830;28;20057;-82
2022/11/12 19:30:41;;;;;;;40.17;21.20;;;9.00;99.90;;;6.94;100.00;101716.03;10486053;28;20057;-82
2022/11/12 19:35:44;;;;;;;31.57;16.60;;;9.10;99.90;;;7.04;100.00;101722.38;10500757;28;20057;-81
2022/11/12 19:40:47;;;;;;;44.63;21.97;;;9.20;99.90;;;7.13;100.00;101729.63;10485055;28;20555;-82
2022/11/12 19:45:50;;;;;;;43.37;22.53;;;9.30;99.90;;;7.17;100.00;101727.63;10502228;28;20061;-82
2022/11/12 19:50:53;;;;;;;44.70;21.83;;;9.40;99.90;;;7.18;100.00;101735.44;10502362;28;20167;-81
2022/11/12 19:56:03;;;;;;;38.53;19.90;;;9.30;99.90;;;7.19;100.00;101739.78;10487071;28;20084;-82
2022/11/12 20:01:09;;;;;;;36.63;19.80;;;9.40;99.90;;;7.18;100.00;101753.13;10500926;28;20069;-81
2022/11/12 20:06:19;;;;;;;33.50;17.93;;;9.30;99.90;;;7.17;100.00;101756.72;10443075;28;20208;-82
2022/11/12 20:11:22;;;;;;;41.13;20.17;;;9.30;99.90;;;7.14;100.00;101759.59;10479937;28;20084;-82
2022/11/12 20:16:26;;;;;;;32.53;15.60;;;9.30;99.90;;;7.11;100.00;101755.34;10501261;28;20056;-82
2022/11/12 20:21:29;;;;;;;33.73;17.83;;;9.30;99.90;;;7.05;100.00;101745.22;10500279;28;20068;-82
2022/11/12 20:26:32;;;;;;;46.83;22.37;;;9.30;99.90;;;6.99;100.00;101761.50;10517651;28;20060;-82
2022/11/12 20:31:36;;;;;;;49.07;22.50;;;9.20;99.90;;;6.91;100.00;101753.25;10499115;28;20068;-82
2022/11/12 20:36:39;;;;;;;40.73;20.53;;;9.10;99.90;;;6.82;100.00;101756.53;10499469;28;20143;-82
2022/11/12 20:41:42;;;;;;;31.27;15.53;;;9.00;99.90;;;6.69;100.00;101745.97;10500558;28;20158;-82
2022/11/12 20:46:45;;;;;;;33.70;15.50;;;8.90;99.90;;;6.60;100.00;101757.16;10499689;28;20061;-82
2022/11/12 20:51:48;;;;;;;58.03;25.73;;;8.80;99.90;;;6.49;100.00;101747.31;10517346;28;20065;-82
2022/11/12 20:56:51;;;;;;;49.83;23.20;;;8.70;99.90;;;6.41;100.00;101750.47;10499685;28;20065;-82
2022/11/12 21:01:57;;;;;;;43.87;22.20;;;8.60;99.90;;;6.29;100.00;101756.56;10507548;28;20057;-81
2022/11/12 21:07:00;;;;;;;44.20;23.37;;;8.50;99.90;;;6.21;100.00;101752.75;10425899;28;20054;-82
2022/11/12 21:12:07;;;;;;;25.63;14.50;;;8.40;99.90;;;6.17;100.00;101750.31;10476766;28;20457;-82
2022/11/12 21:17:10;;;;;;;53.40;23.03;;;8.30;99.90;;;6.16;100.00;101745.13;10499605;28;20061;-82
2022/11/12 21:22:14;;;;;;;41.87;21.13;;;8.30;99.90;;;6.14;100.00;101747.88;10483273;28;20057;-82
2022/11/12 21:27:17;;;;;;;42.57;20.77;;;8.40;99.90;;;6.16;100.00;101751.25;10515150;28;20428;-82